Time;durP1;ratioP1;P1;durP2;ratioP2;P2;SDS_P1;SDS_P2;PMS_P1;PMS_P2;Temp;Humidity;BMP_temperature;BMP_pressure;BME280_temperature;BME280_humidity;BME280_pressure;Samples;Min_cycle;Max_cycle;Signal;HPM_P1;HPM_P2
2023/09/18 00:00:51;;;;;;;0.60;0.60;;;17.80;99.90;;;;;;5094825;28;20040;-75
2023/09/18 00:03:20;;;;;;;0.30;0.30;;;17.70;99.90;;;;;;5094939;28;20383;-75
2023/09/18 00:05:50;;;;;;;0.40;0.40;;;17.70;99.90;;;;;;5094644;28;20490;-75
2023/09/18 00:08:17;;;;;;;0.45;0.45;;;17.60;99.90;;;;;;5094358;28;20055;-75
2023/09/18 00:10:52;;;;;;;0.40;0.40;;;17.60;99.90;;;;;;5095038;28;20414;-75
2023/09/18 00:13:17;;;;;;;0.57;0.57;;;17.60;99.90;;;;;;5094612;28;20379;-75
2023/09/18 00:15:46;;;;;;;0.53;0.53;;;17.60;99.90;;;;;;5094512;28;20050;-75
2023/09/18 00:18:13;;;;;;;0.75;0.70;;;17.60;99.90;;;;;;5094205;28;20036;-75
2023/09/18 00:20:38;;;;;;;;;;;17.60;99.90;;;;;;5094808;28;20122;-75
2023/09/18 00:23:05;;;;;;;0.52;0.50;;;17.50;99.90;;;;;;5094803;28;19963;-75
2023/09/18 00:25:31;;;;;;;0.38;0.38;;;17.50;99.90;;;;;;5094698;28;20040;-75
2023/09/18 00:27:57;;;;;;;0.40;0.40;;;17.50;99.90;;;;;;5094268;28;20086;-75
2023/09/18 00:30:22;;;;;;;1.03;0.73;;;17.50;99.90;;;;;;5094365;28;20079;-75
2023/09/18 00:32:49;;;;;;;0.53;0.53;;;17.40;99.90;;;;;;5094253;28;20151;-75
2023/09/18 00:35:15;;;;;;;0.55;0.55;;;17.40;99.90;;;;;;5094081;28;20124;-75
2023/09/18 00:37:43;;;;;;;0.67;0.67;;;17.50;99.90;;;;;;5094152;28;20052;-75
2023/09/18 00:40:09;;;;;;;0.73;0.60;;;17.40;99.90;;;;;;5094127;28;20035;-75
2023/09/18 00:42:34;;;;;;;0.60;0.60;;;17.40;99.90;;;;;;5094210;28;20391;-75
2023/09/18 00:45:00;;;;;;;0.53;0.47;;;17.40;99.90;;;;;;5094237;28;20040;-75
2023/09/18 00:47:26;;;;;;;1.50;0.80;;;17.40;99.90;;;;;;5092891;28;20046;-75
2023/09/18 00:49:52;;;;;;;0.60;0.60;;;17.40;99.90;;;;;;5093947;28;20043;-75
2023/09/18 00:52:19;;;;;;;0.52;0.50;;;17.40;99.90;;;;;;5094323;28;20351;-75
2023/09/18 00:54:47;;;;;;;0.60;0.60;;;17.40;99.90;;;;;;5093858;28;20054;-74
2023/09/18 00:57:13;;;;;;;0.52;0.47;;;17.30;99.90;;;;;;5093795;28;20040;-75
2023/09/18 00:59:39;;;;;;;0.83;0.80;;;17.40;99.90;;;;;;5093571;28;20105;-74
2023/09/18 01:02:05;;;;;;;0.60;0.50;;;17.40;99.90;;;;;;5093895;28;20621;-75
2023/09/18 01:04:32;;;;;;;1.53;1.43;;;17.40;99.90;;;;;;5093488;28;20032;-75
2023/09/18 01:07:04;;;;;;;0.93;0.80;;;17.40;99.90;;;;;;5093675;28;20230;-75
2023/09/18 01:09:34;;;;;;;0.88;0.60;;;17.40;99.90;;;;;;5092990;28;20548;-75
2023/09/18 01:12:17;;;;;;;0.93;0.60;;;17.40;99.90;;;;;;5093655;28;20040;-75
2023/09/18 01:15:07;;;;;;;0.47;0.47;;;17.40;99.90;;;;;;5093847;28;20046;-75
2023/09/18 01:17:38;;;;;;;0.60;0.60;;;17.40;99.90;;;;;;5094262;28;20425;-75
2023/09/18 01:20:05;;;;;;;0.60;0.60;;;17.50;99.90;;;;;;5093698;28;20036;-74
2023/09/18 01:22:32;;;;;;;0.68;0.63;;;17.40;99.90;;;;;;5093353;28;20380;-75
2023/09/18 01:24:57;;;;;;;0.40;0.40;;;17.40;99.90;;;;;;5093524;28;20097;-75
2023/09/18 01:27:23;;;;;;;1.10;0.73;;;17.40;99.90;;;;;;5093474;28;20039;-75
2023/09/18 01:29:49;;;;;;;0.53;0.53;;;17.40;99.90;;;;;;5093578;28;20083;-75
2023/09/18 01:32:15;;;;;;;0.50;0.50;;;17.40;99.90;;;;;;5093942;28;20047;-75
2023/09/18 01:34:52;;;;;;;0.57;0.57;;;17.40;99.90;;;;;;5093450;28;20323;-75
2023/09/18 01:37:21;;;;;;;1.10;0.80;;;17.40;99.90;;;;;;5093443;28;20035;-76
2023/09/18 01:39:49;;;;;;;0.50;0.50;;;17.30;99.90;;;;;;5093384;28;20036;-75
2023/09/18 01:42:15;;;;;;;0.40;0.40;;;17.30;99.90;;;;;;5092354;28;20048;-75
2023/09/18 01:44:41;;;;;;;0.60;0.60;;;17.30;99.90;;;;;;5093440;28;20047;-75
2023/09/18 01:47:15;;;;;;;0.50;0.50;;;17.30;99.90;;;;;;5093321;28;20040;-75
2023/09/18 01:49:42;;;;;;;0.57;0.55;;;17.30;99.90;;;;;;5093661;28;20043;-75
2023/09/18 01:52:09;;;;;;;0.50;0.50;;;17.30;99.90;;;;;;5093392;28;20363;-75
2023/09/18 01:54:35;;;;;;;0.93;0.88;;;17.40;99.90;;;;;;5093200;28;20032;-75
2023/09/18 01:57:02;;;;;;;0.40;0.40;;;17.30;99.90;;;;;;5093492;28;20044;-75
2023/09/18 01:59:28;;;;;;;0.77;0.68;;;17.40;99.90;;;;;;5093263;28;20131;-75
2023/09/18 02:01:54;;;;;;;0.73;0.73;;;17.30;99.90;;;;;;5093007;28;20138;-75
2023/09/18 02:04:20;;;;;;;0.70;0.70;;;17.40;99.90;;;;;;5093172;28;20122;-75
2023/09/18 02:06:47;;;;;;;0.50;0.50;;;17.40;99.90;;;;;;5093243;28;20047;-75
2023/09/18 02:09:13;;;;;;;0.85;0.60;;;17.40;99.90;;;;;;5093361;28;20142;-75
2023/09/18 02:11:40;;;;;;;0.87;0.67;;;17.30;99.90;;;;;;5092861;28;20135;-75
2023/09/18 02:14:06;;;;;;;0.68;0.60;;;17.40;99.90;;;;;;5091821;28;20036;-75
2023/09/18 02:16:37;;;;;;;0.88;0.88;;;17.30;99.90;;;;;;5091386;28;20382;-75
2023/09/18 02:19:03;;;;;;;0.40;0.40;;;17.40;99.90;;;;;;5092011;28;20036;-75
2023/09/18 02:21:30;;;;;;;0.60;0.60;;;17.40;99.90;;;;;;5095790;28;20476;-75
2023/09/18 02:23:55;;;;;;;0.70;0.50;;;17.40;99.90;;;;;;5096081;28;20115;-75
2023/09/18 02:26:22;;;;;;;0.70;0.63;;;17.40;99.90;;;;;;5096584;28;20131;-75
2023/09/18 02:28:48;;;;;;;0.60;0.60;;;17.40;99.90;;;;;;5096598;28;20051;-75
2023/09/18 02:31:14;;;;;;;0.63;0.57;;;17.40;99.90;;;;;;5096606;28;20052;-75
2023/09/18 02:33:41;;;;;;;0.40;0.40;;;17.40;99.90;;;;;;5096528;28;20036;-75
2023/09/18 02:36:07;;;;;;;1.10;1.00;;;17.40;99.90;;;;;;5096491;28;20036;-75
2023/09/18 02:38:33;;;;;;;0.70;0.70;;;17.40;99.90;;;;;;5096218;28;20084;-75
2023/09/18 02:41:00;;;;;;;0.50;0.50;;;17.40;99.90;;;;;;5096418;28;20061;-75
2023/09/18 02:43:25;;;;;;;0.50;0.43;;;17.40;99.90;;;;;;5096361;28;20387;-75
2023/09/18 02:45:51;;;;;;;0.57;0.57;;;17.40;99.90;;;;;;5096541;28;20116;-75
2023/09/18 02:48:18;;;;;;;0.98;0.88;;;17.40;99.90;;;;;;5096451;28;20169;-75
2023/09/18 02:50:44;;;;;;;1.48;0.68;;;17.40;99.90;;;;;;5096351;28;20032;-75
2023/09/18 02:53:26;;;;;;;0.60;0.60;;;17.40;99.90;;;;;;5096022;28;20130;-75
2023/09/18 02:55:54;;;;;;;0.40;0.40;;;17.40;99.90;;;;;;5096187;28;20040;-75
2023/09/18 02:58:20;;;;;;;0.40;0.40;;;17.40;99.90;;;;;;5096248;28;20036;-75
2023/09/18 03:00:48;;;;;;;0.30;0.30;;;17.40;99.90;;;;;;5096282;28;20079;-75
2023/09/18 03:03:14;;;;;;;0.40;0.40;;;17.40;99.90;;;;;;5095935;28;20071;-75
2023/09/18 03:05:41;;;;;;;1.83;0.80;;;17.40;99.90;;;;;;5095836;28;20036;-75
2023/09/18 03:08:07;;;;;;;;;;;17.40;99.90;;;;;;5096068;28;20098;-75
2023/09/18 03:10:33;;;;;;;0.57;0.45;;;17.40;99.90;;;;;;5096410;28;19916;-75
2023/09/18 03:13:00;;;;;;;0.40;0.40;;;17.40;99.90;;;;;;5095728;28;20058;-75
2023/09/18 03:15:25;;;;;;;0.70;0.70;;;17.40;99.90;;;;;;5095479;28;20043;-75
2023/09/18 03:17:51;;;;;;;0.37;0.37;;;17.40;99.90;;;;;;5095697;28;20044;-75
2023/09/18 03:20:16;;;;;;;0.60;0.57;;;17.40;99.90;;;;;;5095556;28;20371;-75
2023/09/18 03:22:42;;;;;;;0.63;0.63;;;17.40;99.90;;;;;;5095999;28;20114;-75
2023/09/18 03:25:08;;;;;;;0.63;0.63;;;17.40;99.90;;;;;;5094463;28;20581;-75
2023/09/18 03:27:33;;;;;;;0.40;0.40;;;17.50;99.90;;;;;;5094722;28;20123;-75
2023/09/18 03:29:59;;;;;;;0.57;0.57;;;17.50;99.90;;;;;;5096063;28;20044;-75
2023/09/18 03:32:25;;;;;;;0.63;0.60;;;17.50;99.90;;;;;;5095281;28;20048;-75
2023/09/18 03:34:51;;;;;;;1.70;0.50;;;17.50;99.90;;;;;;5095320;28;20197;-75
2023/09/18 03:37:17;;;;;;;1.00;0.85;;;17.50;99.90;;;;;;5095156;28;20047;-75
2023/09/18 03:39:42;;;;;;;0.77;0.77;;;17.50;99.90;;;;;;5095631;28;20436;-75
2023/09/18 03:42:08;;;;;;;0.50;0.50;;;17.50;99.90;;;;;;5094190;28;20044;-75
2023/09/18 03:44:33;;;;;;;0.50;0.43;;;17.50;99.90;;;;;;5095178;28;20102;-75
2023/09/18 03:46:59;;;;;;;0.50;0.50;;;17.50;99.90;;;;;;5095253;28;20471;-75
2023/09/18 03:49:24;;;;;;;0.50;0.50;;;17.50;99.90;;;;;;5095074;28;20126;-75
2023/09/18 03:51:50;;;;;;;0.37;0.37;;;17.50;99.90;;;;;;5095006;28;20047;-75
2023/09/18 03:54:16;;;;;;;0.80;0.50;;;17.50;99.90;;;;;;5094949;28;20054;-75
2023/09/18 03:56:41;;;;;;;0.33;0.33;;;17.50;99.90;;;;;;5095047;28;20043;-75
2023/09/18 03:59:07;;;;;;;0.40;0.40;;;17.50;99.90;;;;;;5094966;28;20040;-75
2023/09/18 04:01:32;;;;;;;0.50;0.50;;;17.50;99.90;;;;;;5093810;28;20478;-75
2023/09/18 04:03:58;;;;;;;0.50;0.43;;;17.50;99.90;;;;;;5094880;28;20108;-75
2023/09/18 04:06:24;;;;;;;0.47;0.40;;;17.50;99.90;;;;;;5094651;28;20035;-75
2023/09/18 04:08:50;;;;;;;0.50;0.50;;;17.50;99.90;;;;;;5094761;28;20093;-75
2023/09/18 04:11:17;;;;;;;0.40;0.40;;;17.40;99.90;;;;;;5094592;28;20044;-75
2023/09/18 04:13:42;;;;;;;0.38;0.38;;;17.40;99.90;;;;;;5094607;28;20460;-75
2023/09/18 04:16:08;;;;;;;0.30;0.30;;;17.50;99.90;;;;;;5094683;28;20046;-75
2023/09/18 04:18:33;;;;;;;0.70;0.70;;;17.40;99.90;;;;;;5094197;28;20379;-75
2023/09/18 04:20:59;;;;;;;0.30;0.30;;;17.50;99.90;;;;;;5094329;28;20047;-75
2023/09/18 04:23:28;;;;;;;0.60;0.40;;;17.50;99.90;;;;;;5094122;28;20044;-75
2023/09/18 04:25:54;;;;;;;0.60;0.50;;;17.50;99.90;;;;;;5094414;28;20036;-75
2023/09/18 04:28:22;;;;;;;0.57;0.57;;;17.50;99.90;;;;;;5094313;28;20085;-75
2023/09/18 04:30:48;;;;;;;0.68;0.68;;;17.50;99.90;;;;;;5094312;28;20123;-76
2023/09/18 04:33:14;;;;;;;0.40;0.40;;;17.50;99.90;;;;;;5094186;28;20459;-76
2023/09/18 04:35:40;;;;;;;0.30;0.30;;;17.50;99.90;;;;;;5094190;28;20325;-75
2023/09/18 04:38:08;;;;;;;0.90;0.55;;;17.50;99.90;;;;;;5094138;28;20079;-75
2023/09/18 04:40:34;;;;;;;0.40;0.40;;;17.50;99.90;;;;;;5094094;28;20471;-75
2023/09/18 04:43:00;;;;;;;0.40;0.40;;;17.50;99.90;;;;;;5093638;28;20052;-75
2023/09/18 04:45:26;;;;;;;0.77;0.60;;;17.50;99.90;;;;;;5094079;28;20055;-76
2023/09/18 04:47:52;;;;;;;0.57;0.57;;;17.50;99.90;;;;;;5093776;28;20387;-75
2023/09/18 04:50:18;;;;;;;0.50;0.50;;;17.50;99.90;;;;;;5093693;28;20048;-76
2023/09/18 04:52:44;;;;;;;1.60;0.37;;;17.50;99.90;;;;;;5093986;28;20081;-75
2023/09/18 04:55:11;;;;;;;0.50;0.50;;;17.60;99.90;;;;;;5093835;28;20051;-75
2023/09/18 04:57:37;;;;;;;0.68;0.60;;;17.60;99.90;;;;;;5092719;28;20039;-76
2023/09/18 05:00:07;;;;;;;0.40;0.40;;;17.60;99.90;;;;;;5092712;28;20040;-75
2023/09/18 05:02:34;;;;;;;0.50;0.50;;;17.60;99.90;;;;;;5093987;28;20071;-76
2023/09/18 05:05:00;;;;;;;0.90;0.60;;;17.70;99.90;;;;;;5093450;28;20483;-75
2023/09/18 05:07:26;;;;;;;0.40;0.40;;;17.60;99.90;;;;;;5093672;28;20079;-75
2023/09/18 05:09:52;;;;;;;0.60;0.50;;;17.70;99.90;;;;;;5093389;28;20325;-75
2023/09/18 05:12:18;;;;;;;0.70;0.57;;;17.80;99.90;;;;;;5093973;28;20044;-75
2023/09/18 05:14:44;;;;;;;0.87;0.60;;;17.80;99.90;;;;;;5093872;28;20040;-76
2023/09/18 05:17:15;;;;;;;0.90;0.80;;;17.80;99.90;;;;;;5093575;28;20040;-80
2023/09/18 05:19:42;;;;;;;0.93;0.82;;;17.80;99.90;;;;;;5093944;28;20135;-78
2023/09/18 05:22:11;;;;;;;1.13;0.80;;;17.80;99.90;;;;;;5093548;28;20047;-78
2023/09/18 05:24:39;;;;;;;9.98;1.35;;;17.80;99.90;;;;;;5093377;28;20422;-76
2023/09/18 05:27:07;;;;;;;0.50;0.50;;;17.80;99.90;;;;;;5093526;28;20044;-78
2023/09/18 05:29:32;;;;;;;0.63;0.63;;;17.80;99.90;;;;;;5093573;28;20032;-73
2023/09/18 05:31:58;;;;;;;0.57;0.57;;;17.80;99.90;;;;;;5093453;28;20130;-72
2023/09/18 05:34:23;;;;;;;0.60;0.60;;;17.90;99.90;;;;;;5093494;28;20070;-73
2023/09/18 05:36:49;;;;;;;1.17;0.60;;;17.80;99.90;;;;;;5093858;28;20036;-73
2023/09/18 05:39:16;;;;;;;0.40;0.40;;;17.80;99.90;;;;;;5093464;28;20485;-71
2023/09/18 05:41:42;;;;;;;;;;;17.90;99.90;;;;;;5093922;28;20036;-72
2023/09/18 05:44:08;;;;;;;0.55;0.55;;;17.90;99.90;;;;;;5093458;28;20011;-72
2023/09/18 05:46:36;;;;;;;0.50;0.50;;;17.90;99.90;;;;;;5093377;28;20077;-72
2023/09/18 05:49:05;;;;;;;0.93;0.73;;;17.90;99.90;;;;;;5094029;28;20036;-72
2023/09/18 05:51:32;;;;;;;1.05;0.82;;;17.90;99.90;;;;;;5093709;28;20036;-71
2023/09/18 05:53:58;;;;;;;0.30;0.30;;;18.00;99.90;;;;;;5093635;28;20364;-77
2023/09/18 05:56:24;;;;;;;0.50;0.50;;;18.00;99.90;;;;;;5095917;28;20047;-72
2023/09/18 05:58:49;;;;;;;0.30;0.30;;;18.00;99.90;;;;;;5097199;28;20028;-72
2023/09/18 06:01:15;;;;;;;0.43;0.43;;;18.00;99.90;;;;;;5097041;28;20113;-72
2023/09/18 06:03:41;;;;;;;0.93;0.83;;;18.10;99.90;;;;;;5097082;28;20476;-72
2023/09/18 06:06:07;;;;;;;0.80;0.70;;;18.10;99.90;;;;;;5097562;28;20036;-73
2023/09/18 06:08:33;;;;;;;0.93;0.60;;;18.10;99.90;;;;;;5097286;28;20443;-72
2023/09/18 06:10:59;;;;;;;0.70;0.70;;;18.20;99.90;;;;;;5096914;28;20094;-72
2023/09/18 06:13:25;;;;;;;0.57;0.50;;;18.20;99.90;;;;;;5096810;28;20039;-72
2023/09/18 06:15:54;;;;;;;0.50;0.50;;;18.20;99.90;;;;;;5096699;28;20096;-75
2023/09/18 06:18:23;;;;;;;0.52;0.45;;;18.30;99.90;;;;;;5096907;28;20040;-74
2023/09/18 06:20:49;;;;;;;0.75;0.70;;;18.30;99.90;;;;;;5096759;28;20119;-74
2023/09/18 06:23:15;;;;;;;0.77;0.77;;;18.30;99.90;;;;;;5096709;28;20044;-73
2023/09/18 06:25:41;;;;;;;0.80;0.80;;;18.40;99.90;;;;;;5096356;28;20039;-76
2023/09/18 06:28:07;;;;;;;0.60;0.60;;;18.30;99.90;;;;;;5096358;28;20042;-78
2023/09/18 06:30:33;;;;;;;0.77;0.70;;;18.40;99.90;;;;;;5096332;28;20461;-79
2023/09/18 06:32:59;;;;;;;1.98;1.17;;;18.40;99.90;;;;;;5096533;28;20131;-77
2023/09/18 06:35:25;;;;;;;1.02;0.63;;;18.40;99.90;;;;;;5096582;28;20092;-79
2023/09/18 06:37:51;;;;;;;0.83;0.80;;;18.50;99.90;;;;;;5096418;28;20451;-76
2023/09/18 06:40:17;;;;;;;0.50;0.50;;;18.50;99.90;;;;;;5096134;28;20176;-75
2023/09/18 06:42:43;;;;;;;1.00;0.60;;;18.50;99.90;;;;;;5096219;28;20055;-77
2023/09/18 06:45:08;;;;;;;1.13;0.70;;;18.60;99.90;;;;;;5096161;28;20475;-78
2023/09/18 06:47:34;;;;;;;0.40;0.40;;;18.60;99.90;;;;;;5096291;28;20047;-78
2023/09/18 06:50:00;;;;;;;0.60;0.60;;;18.60;99.90;;;;;;5096015;28;20274;-79
2023/09/18 06:52:27;;;;;;;0.50;0.50;;;18.60;99.90;;;;;;5096166;28;20040;-76
2023/09/18 06:54:53;;;;;;;0.55;0.55;;;18.70;99.90;;;;;;5096099;28;20048;-74
2023/09/18 06:57:21;;;;;;;0.67;0.67;;;18.70;99.90;;;;;;5095960;28;20038;-74
2023/09/18 06:59:47;;;;;;;0.88;0.43;;;18.70;99.90;;;;;;5095813;28;20274;-75
2023/09/18 07:02:14;;;;;;;0.30;0.30;;;18.70;99.90;;;;;;5095976;28;20197;-75
2023/09/18 07:04:44;;;;;;;0.73;0.73;;;18.80;99.90;;;;;;5096190;28;20379;-75
2023/09/18 07:07:14;;;;;;;0.52;0.52;;;18.80;99.90;;;;;;5095467;28;20040;-72
2023/09/18 07:09:41;;;;;;;0.50;0.50;;;18.80;99.90;;;;;;5095712;28;20056;-74
2023/09/18 07:12:09;;;;;;;0.50;0.50;;;18.80;99.90;;;;;;5095712;28;20044;-73
2023/09/18 07:14:35;;;;;;;0.70;0.60;;;18.90;99.90;;;;;;5095683;28;20044;-74
2023/09/18 07:17:02;;;;;;;0.40;0.40;;;18.90;99.90;;;;;;5095725;28;20383;-73
2023/09/18 07:19:27;;;;;;;0.55;0.55;;;18.90;99.90;;;;;;5095619;28;20376;-72
2023/09/18 07:21:53;;;;;;;0.40;0.40;;;18.90;99.90;;;;;;5095597;28;20032;-76
2023/09/18 07:24:20;;;;;;;1.50;0.70;;;18.90;99.90;;;;;;5095474;28;20040;-76
2023/09/18 07:26:49;;;;;;;0.38;0.38;;;18.90;99.90;;;;;;5095365;28;20074;-73
2023/09/18 07:29:15;;;;;;;0.30;0.30;;;19.00;99.90;;;;;;5095330;28;20067;-72
2023/09/18 07:31:42;;;;;;;0.30;0.30;;;19.00;99.90;;;;;;5095101;28;20464;-73
2023/09/18 07:34:08;;;;;;;;;;;19.00;99.90;;;;;;5095464;28;20395;-73
2023/09/18 07:36:33;;;;;;;1.65;0.75;;;19.10;99.90;;;;;;5095346;28;19916;-73
2023/09/18 07:38:59;;;;;;;0.60;0.60;;;19.10;99.90;;;;;;5095136;28;20044;-73
2023/09/18 07:41:25;;;;;;;0.53;0.47;;;19.10;99.90;;;;;;5095370;28;20123;-76
2023/09/18 07:43:50;;;;;;;0.40;0.40;;;19.20;99.90;;;;;;5093901;28;20072;-73
2023/09/18 07:46:16;;;;;;;0.20;0.20;;;19.30;99.90;;;;;;5095113;28;20047;-71
2023/09/18 07:48:42;;;;;;;0.70;0.67;;;19.30;99.90;;;;;;5094919;28;20036;-72
2023/09/18 07:51:15;;;;;;;0.30;0.30;;;19.30;99.90;;;;;;5095104;28;20054;-73
2023/09/18 07:53:41;;;;;;;0.40;0.40;;;19.40;99.90;;;;;;5094954;28;20124;-72
2023/09/18 07:56:07;;;;;;;0.40;0.40;;;19.40;99.90;;;;;;5095225;28;20079;-72
2023/09/18 07:58:33;;;;;;;0.60;0.50;;;19.50;99.90;;;;;;5094698;28;20043;-72
2023/09/18 08:00:59;;;;;;;0.30;0.30;;;19.50;99.90;;;;;;5094831;28;20044;-73
2023/09/18 08:03:28;;;;;;;0.67;0.63;;;19.50;99.90;;;;;;5094829;28;20391;-72
2023/09/18 08:05:54;;;;;;;0.40;0.40;;;19.50;99.90;;;;;;5095024;28;20119;-72
2023/09/18 08:08:21;;;;;;;0.63;0.47;;;19.60;99.90;;;;;;5094685;28;20127;-72
2023/09/18 08:10:47;;;;;;;0.75;0.68;;;19.60;99.90;;;;;;5094639;28;20036;-72
2023/09/18 08:13:13;;;;;;;0.60;0.60;;;19.60;99.90;;;;;;5095049;28;20088;-72
2023/09/18 08:15:39;;;;;;;1.03;0.93;;;19.60;99.90;;;;;;5094953;28;20124;-72
2023/09/18 08:18:05;;;;;;;0.50;0.50;;;19.60;99.90;;;;;;5093665;28;20047;-74
2023/09/18 08:20:30;;;;;;;1.00;0.50;;;19.60;99.90;;;;;;5094537;28;20169;-80
2023/09/18 08:22:56;;;;;;;0.50;0.50;;;19.50;99.90;;;;;;5094459;28;20154;-76
2023/09/18 08:25:22;;;;;;;0.70;0.50;;;19.50;99.90;;;;;;5094457;28;20383;-76
2023/09/18 08:27:48;;;;;;;0.30;0.30;;;19.50;99.90;;;;;;5094307;28;20036;-76
2023/09/18 08:30:14;;;;;;;0.30;0.30;;;19.40;99.90;;;;;;5094847;28;20046;-77
2023/09/18 08:32:41;;;;;;;0.60;0.50;;;19.40;99.90;;;;;;5094418;28;20123;-80
2023/09/18 08:35:08;;;;;;;0.32;0.32;;;19.40;99.90;;;;;;5094325;28;20046;-73
2023/09/18 08:37:34;;;;;;;0.50;0.50;;;19.40;99.90;;;;;;5094206;28;20087;-75
2023/09/18 08:40:00;;;;;;;0.30;0.30;;;19.40;99.90;;;;;;5094068;28;20432;-75
2023/09/18 08:42:29;;;;;;;0.40;0.40;;;19.50;99.90;;;;;;5081179;28;20483;-76
2023/09/18 08:44:59;;;;;;;0.40;0.40;;;19.50;99.90;;;;;;5094027;28;20043;-74
2023/09/18 08:47:25;;;;;;;0.57;0.57;;;19.60;99.90;;;;;;5093661;28;20273;-76
2023/09/18 08:49:52;;;;;;;0.63;0.57;;;19.60;99.90;;;;;;5092409;28;20468;-73
2023/09/18 08:52:19;;;;;;;1.63;0.70;;;19.70;99.90;;;;;;5075360;28;20384;-71
2023/09/18 08:54:46;;;;;;;0.68;0.60;;;19.70;99.90;;;;;;5088185;28;20035;-74
2023/09/18 08:57:12;;;;;;;0.60;0.60;;;19.70;99.90;;;;;;5093973;28;20083;-72
2023/09/18 08:59:39;;;;;;;0.37;0.37;;;19.70;99.90;;;;;;5083121;28;20079;-73
2023/09/18 09:02:06;;;;;;;0.90;0.60;;;19.80;99.90;;;;;;5089272;28;20036;-75
2023/09/18 09:04:31;;;;;;;0.43;0.43;;;19.90;99.90;;;;;;5089546;28;20045;-74
2023/09/18 09:06:59;;;;;;;0.40;0.40;;;19.90;99.90;;;;;;5073794;28;20047;-73
2023/09/18 09:09:26;;;;;;;4.40;1.08;;;20.00;99.90;;;;;;5076783;28;20048;-74
2023/09/18 09:11:52;;;;;;;0.73;0.73;;;20.10;99.90;;;;;;5093036;28;20050;-75
2023/09/18 09:14:21;;;;;;;0.40;0.40;;;20.10;99.90;;;;;;5093742;28;20131;-73
2023/09/18 09:16:51;;;;;;;0.93;0.60;;;20.10;99.90;;;;;;5093400;28;20475;-74
2023/09/18 09:19:17;;;;;;;0.52;0.50;;;20.10;99.90;;;;;;5081319;28;20045;-75
2023/09/18 09:21:44;;;;;;;0.98;0.45;;;20.10;99.90;;;;;;5073485;28;20044;-76
2023/09/18 09:24:14;;;;;;;0.50;0.50;;;20.10;99.90;;;;;;5090300;28;20068;-77
2023/09/18 09:26:42;;;;;;;0.40;0.40;;;20.10;99.90;;;;;;5093464;28;20081;-74
2023/09/18 09:29:19;;;;;;;0.45;0.45;;;20.30;99.90;;;;;;5094040;28;20460;-77
2023/09/18 09:31:45;;;;;;;1.10;0.65;;;20.40;99.90;;;;;;5078938;28;20040;-76
2023/09/18 09:34:11;;;;;;;0.60;0.60;;;20.50;99.90;;;;;;5097798;28;20105;-79
2023/09/18 09:36:52;;;;;;;0.63;0.47;;;20.50;99.90;;;;;;5095289;28;20047;-80
2023/09/18 09:39:18;;;;;;;0.47;0.30;;;20.40;99.90;;;;;;5097266;28;20459;-76
2023/09/18 09:41:46;;;;;;;1.27;0.50;;;20.40;99.90;;;;;;5097686;28;20044;-76
2023/09/18 09:44:13;;;;;;;1.10;0.70;;;20.40;99.90;;;;;;5097523;28;20416;-81
2023/09/18 09:46:46;;;;;;;0.70;0.55;;;20.60;99.90;;;;;;5097274;28;20040;-77
2023/09/18 09:49:11;;;;;;;0.40;0.40;;;20.70;99.90;;;;;;5096316;28;20043;-79
2023/09/18 09:51:37;;;;;;;0.73;0.73;;;20.80;99.90;;;;;;5095847;28;20437;-77
2023/09/18 09:54:03;;;;;;;0.33;0.33;;;20.90;99.90;;;;;;5095519;28;20114;-76
2023/09/18 09:56:50;;;;;;;0.40;0.40;;;21.00;99.90;;;;;;5095787;28;20043;-77
2023/09/18 09:59:18;;;;;;;0.20;0.20;;;21.20;99.90;;;;;;5097080;28;20114;-77
2023/09/18 10:01:48;;;;;;;0.50;0.50;;;21.30;99.90;;;;;;5096592;28;20373;-77
2023/09/18 10:04:18;;;;;;;0.30;0.30;;;21.40;99.90;;;;;;5097737;28;20474;-77
2023/09/18 10:06:55;;;;;;;0.50;0.43;;;21.50;99.90;;;;;;5097093;28;20383;-77
2023/09/18 10:09:23;;;;;;;0.45;0.40;;;21.50;99.90;;;;;;5097170;28;20486;-78
2023/09/18 10:11:54;;;;;;;0.57;0.57;;;21.40;99.90;;;;;;5096970;28;20044;-82
2023/09/18 10:14:22;;;;;;;0.50;0.50;;;21.40;99.90;;;;;;5096701;28;20047;-79
2023/09/18 10:16:53;;;;;;;0.50;0.50;;;21.40;99.90;;;;;;5096763;28;20081;-77
2023/09/18 10:19:35;;;;;;;0.35;0.35;;;21.40;99.90;;;;;;5096968;28;20036;-75
2023/09/18 10:22:27;;;;;;;0.30;0.30;;;21.50;99.90;;;;;;5079987;28;20043;-75
2023/09/18 10:25:00;;;;;;;2.50;0.60;;;21.60;99.90;;;;;;5096645;28;20036;-75
2023/09/18 10:27:26;;;;;;;0.30;0.30;;;21.60;99.90;;;;;;5096841;28;20044;-73
2023/09/18 10:29:54;;;;;;;0.85;0.55;;;21.80;99.90;;;;;;5096623;28;20114;-74
2023/09/18 10:32:21;;;;;;;0.20;0.20;;;21.80;99.90;;;;;;5096590;28;20044;-76
2023/09/18 10:34:48;;;;;;;0.65;0.65;;;21.80;99.90;;;;;;5096498;28;20075;-76
2023/09/18 10:37:15;;;;;;;0.30;0.30;;;21.90;99.90;;;;;;5096414;28;20044;-77
2023/09/18 10:39:43;;;;;;;0.30;0.30;;;22.00;99.90;;;;;;5096809;28;20123;-74
2023/09/18 10:42:10;;;;;;;0.30;0.30;;;22.00;99.90;;;;;;5095576;28;20068;-74
2023/09/18 10:44:39;;;;;;;2.92;0.88;;;22.10;99.90;;;;;;5096485;28;20035;-74
2023/09/18 10:47:07;;;;;;;0.25;0.25;;;22.20;99.90;;;;;;5096401;28;20093;-74
2023/09/18 10:49:35;;;;;;;1.85;0.80;;;22.30;99.90;;;;;;5096268;28;20032;-78
2023/09/18 10:52:00;;;;;;;0.47;0.45;;;22.30;99.90;;;;;;5096110;28;20048;-77
2023/09/18 10:54:27;;;;;;;0.30;0.30;;;22.30;99.90;;;;;;5094922;28;20066;-77
2023/09/18 10:56:55;;;;;;;0.25;0.25;;;22.30;99.90;;;;;;5095194;28;20044;-78
2023/09/18 10:59:21;;;;;;;0.47;0.47;;;22.30;99.90;;;;;;5095809;28;20036;-77
2023/09/18 11:01:48;;;;;;;0.33;0.33;;;22.40;99.90;;;;;;5095836;28;20036;-76
2023/09/18 11:04:17;;;;;;;0.30;0.30;;;22.50;99.90;;;;;;5096029;28;20048;-76
2023/09/18 11:06:55;;;;;;;0.20;0.20;;;22.70;99.90;;;;;;5095910;28;20028;-76
2023/09/18 11:09:22;;;;;;;0.30;0.30;;;22.80;99.90;;;;;;5096015;28;20047;-76
2023/09/18 11:11:57;;;;;;;0.40;0.40;;;22.90;99.90;;;;;;5095665;28;20079;-77
2023/09/18 11:14:56;;;;;;;0.20;0.20;;;23.00;99.90;;;;;;5095569;28;20127;-77
2023/09/18 11:17:29;;;;;;;0.45;0.45;;;23.00;99.90;;;;;;5090431;28;20391;-76
2023/09/18 11:20:18;;;;;;;0.30;0.30;;;23.00;99.90;;;;;;5095454;28;20046;-77
2023/09/18 11:23:16;;;;;;;0.60;0.60;;;23.20;99.90;;;;;;5095866;28;20040;-76
2023/09/18 11:25:45;;;;;;;0.20;0.20;;;23.20;99.90;;;;;;5090743;28;20047;-75
2023/09/18 11:28:23;;;;;;;0.20;0.20;;;23.30;99.90;;;;;;5095594;28;20103;-75
2023/09/18 11:31:00;;;;;;;0.45;0.40;;;23.30;99.90;;;;;;5095502;28;20044;-77
2023/09/18 11:33:39;;;;;;;0.55;0.52;;;23.20;99.90;;;;;;5095235;28;20044;-79
2023/09/18 11:36:30;;;;;;;0.30;0.30;;;23.10;99.90;;;;;;5096191;28;20047;-76
2023/09/18 11:39:03;;;;;;;0.20;0.20;;;23.20;99.90;;;;;;5095279;28;20047;-75
2023/09/18 11:41:39;;;;;;;0.40;0.40;;;23.30;99.90;;;;;;5095319;28;20135;-76
2023/09/18 11:44:13;;;;;;;0.30;0.30;;;23.30;99.90;;;;;;5095251;28;20058;-78
2023/09/18 11:46:40;;;;;;;0.20;0.20;;;23.40;99.90;;;;;;5095513;28;20047;-77
2023/09/18 11:49:10;;;;;;;0.30;0.30;;;23.40;99.90;;;;;;5095447;28;20036;-76
2023/09/18 11:51:36;;;;;;;0.30;0.30;;;23.50;99.90;;;;;;5095224;28;20032;-78
2023/09/18 11:54:03;;;;;;;0.50;0.40;;;23.60;99.90;;;;;;5095159;28;20044;-78
2023/09/18 11:56:29;;;;;;;;;;;23.60;99.90;;;;;;5095483;28;20028;-76
2023/09/18 11:58:55;;;;;;;0.40;0.40;;;23.60;99.90;;;;;;5094816;28;19920;-76
2023/09/18 12:01:22;;;;;;;0.50;0.50;;;23.60;99.90;;;;;;5095282;28;20537;-76
2023/09/18 12:04:14;;;;;;;0.25;0.25;;;23.40;99.90;;;;;;5095238;28;20097;-75
2023/09/18 12:06:42;;;;;;;0.40;0.40;;;23.40;99.90;;;;;;5091756;28;20506;-78
2023/09/18 12:09:12;;;;;;;0.40;0.40;;;23.40;99.90;;;;;;5093548;28;20048;-77
2023/09/18 12:11:42;;;;;;;0.30;0.30;;;23.40;99.90;;;;;;5094471;28;20040;-76
2023/09/18 12:14:07;;;;;;;0.63;0.30;;;23.30;99.90;;;;;;5094924;28;20044;-76
2023/09/18 12:16:43;;;;;;;0.20;0.20;;;23.20;99.90;;;;;;5094655;28;20360;-75
2023/09/18 12:19:16;;;;;;;0.43;0.43;;;23.10;99.90;;;;;;5094448;28;20043;-75
2023/09/18 12:21:47;;;;;;;0.30;0.30;;;23.00;99.90;;;;;;5094561;28;20085;-75
2023/09/18 12:24:22;;;;;;;0.35;0.35;;;22.90;99.90;;;;;;5094693;28;20048;-76
2023/09/18 12:26:47;;;;;;;0.32;0.32;;;22.80;99.90;;;;;;5094499;28;20055;-77
2023/09/18 12:29:13;;;;;;;0.30;0.30;;;22.70;99.90;;;;;;5094333;28;20032;-75
2023/09/18 12:31:39;;;;;;;0.30;0.30;;;22.60;99.90;;;;;;5094548;28;20113;-76
2023/09/18 12:34:07;;;;;;;0.40;0.40;;;22.50;99.90;;;;;;5094362;28;20050;-76
2023/09/18 12:36:34;;;;;;;0.20;0.20;;;22.50;99.90;;;;;;5094178;28;20486;-76
2023/09/18 12:39:00;;;;;;;;;;;22.40;99.90;;;;;;5076466;28;20482;-75
2023/09/18 12:41:26;;;;;;;0.30;0.30;;;22.40;99.90;;;;;;5094330;28;19922;-76
2023/09/18 12:43:54;;;;;;;0.20;0.20;;;22.40;99.90;;;;;;5093943;28;20036;-77
2023/09/18 12:46:21;;;;;;;0.30;0.30;;;22.30;99.90;;;;;;5094085;28;20036;-76
2023/09/18 12:48:46;;;;;;;0.20;0.20;;;22.20;99.90;;;;;;5093994;28;20036;-76
2023/09/18 12:51:13;;;;;;;0.30;0.30;;;22.20;99.90;;;;;;5093972;28;20046;-71